Time;durP1;ratioP1;P1;durP2;ratioP2;P2;SDS_P1;SDS_P2;PMS_P1;PMS_P2;Temp;Humidity;BMP_temperature;BMP_pressure;BME280_temperature;BME280_humidity;BME280_pressure;Samples;Min_cycle;Max_cycle;Signal;HPM_P1;HPM_P2
2021/09/19 00:02:25;;;;;;;15.93;12.47;;;;;;;;;;6380683;22;20693;-75
2021/09/19 00:04:51;;;;;;;17.17;14.47;;;;;;;;;;6381150;22;20376;-75
2021/09/19 00:07:17;;;;;;;17.90;13.67;;;;;;;;;;6369842;22;20666;-74
2021/09/19 00:09:43;;;;;;;14.37;12.80;;;;;;;;;;6370138;22;20376;-74
2021/09/19 00:12:11;;;;;;;16.60;13.70;;;;;;;;;;6370034;22;20432;-76
2021/09/19 00:17:40;;;;;;;17.03;13.40;;;;;;;;;;6380904;22;20382;-75
2021/09/19 00:20:07;;;;;;;15.00;12.90;;;;;;;;;;6370044;22;20368;-75
2021/09/19 00:22:34;;;;;;;16.93;13.80;;;;;;;;;;6369732;22;20895;-75
2021/09/19 00:25:01;;;;;;;16.00;13.30;;;;;;;;;;6370207;22;20371;-75
2021/09/19 00:27:27;;;;;;;15.93;14.30;;;;;;;;;;6371791;22;20439;-75
2021/09/19 00:29:52;;;;;;;15.17;13.20;;;;;;;;;;6380994;22;20699;-75
2021/09/19 00:32:18;;;;;;;14.27;12.80;;;;;;;;;;6370050;22;20371;-74
2021/09/19 00:34:44;;;;;;;15.63;13.80;;;;;;;;;;6369941;22;20419;-75
2021/09/19 00:37:10;;;;;;;16.67;12.83;;;;;;;;;;6370022;22;20356;-75
2021/09/19 00:39:36;;;;;;;14.83;13.43;;;;;;;;;;6342193;22;20406;-75
2021/09/19 00:42:02;;;;;;;16.23;14.60;;;;;;;;;;6380356;22;20383;-75
2021/09/19 00:47:32;;;;;;;16.00;13.33;;;;;;;;;;6380660;22;20399;-75
2021/09/19 00:49:58;;;;;;;15.40;13.90;;;;;;;;;;6370059;22;20365;-75
2021/09/19 00:52:24;;;;;;;15.13;13.67;;;;;;;;;;6369984;22;20363;-75
2021/09/19 00:54:51;;;;;;;15.00;13.40;;;;;;;;;;6370323;22;20472;-75
2021/09/19 00:57:18;;;;;;;19.13;13.57;;;;;;;;;;6380610;22;20685;-76
2021/09/19 01:02:47;;;;;;;12.83;11.60;;;;;;;;;;6380582;22;20988;-75
2021/09/19 01:05:16;;;;;;;12.73;11.40;;;;;;;;;;6369962;22;20358;-74
2021/09/19 01:07:42;;;;;;;12.23;10.90;;;;;;;;;;6380743;22;20454;-75
2021/09/19 01:10:08;;;;;;;12.70;11.43;;;;;;;;;;6369988;22;20443;-75
2021/09/19 01:12:34;;;;;;;12.47;11.27;;;;;;;;;;6341687;22;20885;-76
2021/09/19 01:18:04;;;;;;;10.50;9.50;;;;;;;;;;6380562;22;20378;-76
2021/09/19 01:20:31;;;;;;;10.83;9.73;;;;;;;;;;6380766;22;20375;-75
2021/09/19 01:23:11;;;;;;;12.03;10.50;;;;;;;;;;6369780;22;20814;-75
2021/09/19 01:25:37;;;;;;;13.03;11.37;;;;;;;;;;6379633;22;20369;-75
2021/09/19 01:28:04;;;;;;;12.50;11.20;;;;;;;;;;6369872;22;20368;-75
2021/09/19 01:30:30;;;;;;;12.07;10.63;;;;;;;;;;6380611;22;20450;-75
2021/09/19 01:32:56;;;;;;;12.50;11.30;;;;;;;;;;6369588;22;20367;-75
2021/09/19 01:35:22;;;;;;;11.67;10.50;;;;;;;;;;6371638;22;20463;-75
2021/09/19 01:37:49;;;;;;;13.67;12.37;;;;;;;;;;6343684;22;20749;-75
2021/09/19 01:40:17;;;;;;;13.00;11.50;;;;;;;;;;6382692;22;20740;-75
2021/09/19 01:42:43;;;;;;;14.33;12.17;;;;;;;;;;6371472;22;20367;-75
2021/09/19 01:48:13;;;;;;;11.90;10.77;;;;;;;;;;6382228;22;20424;-75
2021/09/19 01:50:39;;;;;;;13.30;10.80;;;;;;;;;;6371607;22;20449;-76
2021/09/19 01:53:05;;;;;;;13.03;11.70;;;;;;;;;;6371392;22;20362;-75
2021/09/19 01:55:31;;;;;;;15.63;12.10;;;;;;;;;;6382462;22;20410;-75
2021/09/19 01:57:57;;;;;;;14.70;13.20;;;;;;;;;;6371261;22;20370;-76
2021/09/19 02:03:27;;;;;;;13.37;11.37;;;;;;;;;;6382058;22;20361;-75
2021/09/19 02:05:53;;;;;;;12.80;11.53;;;;;;;;;;6371433;22;20416;-74
2021/09/19 02:08:19;;;;;;;12.30;11.10;;;;;;;;;;6371448;22;20807;-75
2021/09/19 02:10:45;;;;;;;13.43;11.50;;;;;;;;;;6371439;22;20375;-75
2021/09/19 02:13:11;;;;;;;12.00;10.87;;;;;;;;;;6381859;22;20531;-75
2021/09/19 02:18:41;;;;;;;15.50;13.33;;;;;;;;;;6381981;22;20433;-75
2021/09/19 02:21:08;;;;;;;12.80;11.50;;;;;;;;;;6371491;22;20364;-75
2021/09/19 02:23:34;;;;;;;12.93;11.63;;;;;;;;;;6371314;22;20763;-75
2021/09/19 02:26:00;;;;;;;13.43;12.10;;;;;;;;;;6370941;22;20422;-75
2021/09/19 02:28:26;;;;;;;14.33;12.73;;;;;;;;;;6371155;22;20401;-75
2021/09/19 02:30:52;;;;;;;13.00;11.80;;;;;;;;;;6371268;22;20369;-74
2021/09/19 02:33:18;;;;;;;16.67;12.20;;;;;;;;;;6371159;22;20451;-74
2021/09/19 02:35:44;;;;;;;13.33;11.87;;;;;;;;;;6382156;22;20708;-75
2021/09/19 02:38:10;;;;;;;13.23;11.23;;;;;;;;;;6369872;22;20378;-74
2021/09/19 02:40:36;;;;;;;13.60;12.23;;;;;;;;;;6371192;22;20458;-74
2021/09/19 02:43:03;;;;;;;12.57;11.27;;;;;;;;;;6370911;22;20402;-74
2021/09/19 02:48:33;;;;;;;12.90;11.67;;;;;;;;;;6378382;22;20374;-75
2021/09/19 02:51:00;;;;;;;11.53;10.50;;;;;;;;;;6382041;22;20465;-75
2021/09/19 02:53:26;;;;;;;12.30;10.80;;;;;;;;;;6342834;22;20434;-75
2021/09/19 02:55:52;;;;;;;12.17;10.20;;;;;;;;;;6342844;22;20390;-75
2021/09/19 02:58:18;;;;;;;11.33;10.23;;;;;;;;;;6343336;22;20960;-75
2021/09/19 03:03:47;;;;;;;14.23;11.60;;;;;;;;;;6381587;22;20374;-75
2021/09/19 03:06:13;;;;;;;12.10;10.87;;;;;;;;;;6381788;22;20473;-75
2021/09/19 03:08:39;;;;;;;12.40;10.13;;;;;;;;;;6381681;22;20751;-74
2021/09/19 03:11:05;;;;;;;12.43;11.43;;;;;;;;;;6370765;22;20379;-75
2021/09/19 03:13:31;;;;;;;11.30;10.10;;;;;;;;;;6370682;22;20464;-75
2021/09/19 03:19:01;;;;;;;10.63;9.43;;;;;;;;;;6381500;22;20753;-74
2021/09/19 03:21:27;;;;;;;12.10;11.00;;;;;;;;;;6370697;22;20359;-74
2021/09/19 03:23:53;;;;;;;11.80;10.67;;;;;;;;;;6370738;22;20363;-74
2021/09/19 03:26:19;;;;;;;10.90;9.80;;;;;;;;;;6370375;22;20434;-75
2021/09/19 03:28:45;;;;;;;11.77;9.83;;;;;;;;;;6381481;22;20379;-76
2021/09/19 03:34:15;;;;;;;11.23;9.50;;;;;;;;;;6381211;22;20521;-74
2021/09/19 03:36:41;;;;;;;11.93;10.73;;;;;;;;;;6381555;22;20367;-75
2021/09/19 03:39:07;;;;;;;14.43;10.73;;;;;;;;;;6381465;22;20394;-75
2021/09/19 03:41:33;;;;;;;13.73;10.57;;;;;;;;;;6381263;22;20647;-75
2021/09/19 03:43:59;;;;;;;10.83;9.63;;;;;;;;;;6342859;22;20409;-75
2021/09/19 03:49:30;;;;;;;11.00;10.00;;;;;;;;;;6377812;22;20374;-74
2021/09/19 03:51:56;;;;;;;11.90;10.70;;;;;;;;;;6381458;22;20390;-73
2021/09/19 03:54:22;;;;;;;11.73;10.57;;;;;;;;;;6370341;22;20419;-75
2021/09/19 03:56:48;;;;;;;12.27;10.63;;;;;;;;;;6370220;22;20412;-74
2021/09/19 03:59:14;;;;;;;11.10;10.03;;;;;;;;;;6370416;22;20364;-75
2021/09/19 04:01:40;;;;;;;11.77;10.57;;;;;;;;;;6381223;22;20375;-74
2021/09/19 04:04:06;;;;;;;11.20;10.03;;;;;;;;;;6370301;22;20696;-74
2021/09/19 04:06:32;;;;;;;12.70;10.63;;;;;;;;;;6370184;22;20367;-73
2021/09/19 04:08:58;;;;;;;12.43;9.57;;;;;;;;;;6366726;22;20863;-75
2021/09/19 04:11:24;;;;;;;13.20;11.90;;;;;;;;;;6342223;22;20390;-75
2021/09/19 04:13:50;;;;;;;20.50;12.03;;;;;;;;;;6370032;22;20419;-76
2021/09/19 04:19:20;;;;;;;11.30;10.30;;;;;;;;;;6380820;22;20366;-75
2021/09/19 04:21:46;;;;;;;11.60;10.33;;;;;;;;;;6370197;22;20367;-75
2021/09/19 04:24:12;;;;;;;13.87;10.63;;;;;;;;;;6381070;22;20689;-75
2021/09/19 04:26:38;;;;;;;12.93;11.53;;;;;;;;;;6369928;22;20913;-75
2021/09/19 04:29:04;;;;;;;12.10;10.97;;;;;;;;;;6370205;22;20364;-75
2021/09/19 04:34:33;;;;;;;13.77;10.90;;;;;;;;;;6380718;22;20441;-75
2021/09/19 04:36:59;;;;;;;12.47;10.70;;;;;;;;;;6342146;22;20395;-74
2021/09/19 04:39:25;;;;;;;17.50;10.73;;;;;;;;;;6380591;22;20391;-75
2021/09/19 04:41:51;;;;;;;12.57;11.27;;;;;;;;;;6369755;22;20367;-74
2021/09/19 04:44:17;;;;;;;13.70;10.93;;;;;;;;;;6380958;22;20444;-74
2021/09/19 04:49:47;;;;;;;13.20;11.87;;;;;;;;;;6380688;22;20362;-76
2021/09/19 04:52:13;;;;;;;10.93;9.90;;;;;;;;;;6370000;22;20402;-76
2021/09/19 04:54:39;;;;;;;13.53;11.53;;;;;;;;;;6380779;22;20753;-75
2021/09/19 04:57:05;;;;;;;11.23;10.00;;;;;;;;;;6369759;22;20363;-77
2021/09/19 04:59:31;;;;;;;11.80;10.60;;;;;;;;;;6370005;22;20486;-76
2021/09/19 05:05:00;;;;;;;12.93;10.87;;;;;;;;;;6380611;22;20394;-76
2021/09/19 05:07:26;;;;;;;12.20;11.00;;;;;;;;;;6369802;22;20363;-77
2021/09/19 05:09:52;;;;;;;13.20;11.90;;;;;;;;;;6371550;22;20379;-76
2021/09/19 05:12:18;;;;;;;11.07;10.07;;;;;;;;;;6371978;22;20417;-75
2021/09/19 05:14:44;;;;;;;12.53;11.00;;;;;;;;;;6372016;22;20882;-76
2021/09/19 05:20:14;;;;;;;11.60;10.47;;;;;;;;;;6382659;22;20840;-75
2021/09/19 05:22:40;;;;;;;12.17;11.00;;;;;;;;;;6371977;22;20371;-77
2021/09/19 05:25:06;;;;;;;11.93;10.73;;;;;;;;;;6371887;22;20371;-76
2021/09/19 05:27:32;;;;;;;11.23;10.03;;;;;;;;;;6371337;22;20419;-76
2021/09/19 05:29:58;;;;;;;12.47;11.17;;;;;;;;;;6371662;22;20386;-74
2021/09/19 05:35:27;;;;;;;12.10;10.87;;;;;;;;;;6382291;22;20496;-74
2021/09/19 05:37:53;;;;;;;12.23;10.97;;;;;;;;;;6371558;22;20363;-75
2021/09/19 05:40:19;;;;;;;14.07;12.67;;;;;;;;;;6371558;22;20823;-74
2021/09/19 05:42:45;;;;;;;12.87;10.80;;;;;;;;;;6371374;22;20724;-75
2021/09/19 05:45:11;;;;;;;12.17;10.90;;;;;;;;;;6371596;22;20432;-75
2021/09/19 05:50:41;;;;;;;11.60;10.50;;;;;;;;;;6382256;22;20401;-75
2021/09/19 05:53:07;;;;;;;14.10;10.93;;;;;;;;;;6382363;22;20387;-75
2021/09/19 05:55:33;;;;;;;11.67;10.43;;;;;;;;;;6371731;22;20375;-75
2021/09/19 05:57:59;;;;;;;12.53;11.33;;;;;;;;;;6371263;22;20851;-76
2021/09/19 06:00:25;;;;;;;12.07;10.73;;;;;;;;;;6371503;22;20516;-76
2021/09/19 06:05:54;;;;;;;12.20;9.40;;;;;;;;;;6382135;22;20366;-77
2021/09/19 06:08:20;;;;;;;12.27;10.90;;;;;;;;;;6382336;22;20745;-73
2021/09/19 06:10:46;;;;;;;10.97;9.87;;;;;;;;;;6371358;22;20371;-76
2021/09/19 06:13:12;;;;;;;10.20;9.20;;;;;;;;;;6371230;22;20409;-75
2021/09/19 06:15:38;;;;;;;10.77;9.67;;;;;;;;;;6371285;22;20376;-74
2021/09/19 06:18:04;;;;;;;10.43;9.43;;;;;;;;;;6371637;22;20370;-73
2021/09/19 06:20:30;;;;;;;11.30;9.47;;;;;;;;;;6370662;22;20383;-75
2021/09/19 06:22:56;;;;;;;10.40;8.90;;;;;;;;;;6371430;22;20375;-75
2021/09/19 06:25:22;;;;;;;9.70;8.70;;;;;;;;;;6371516;22;20379;-75
2021/09/19 06:27:48;;;;;;;10.73;9.67;;;;;;;;;;6370887;22;20431;-75
2021/09/19 06:30:14;;;;;;;9.67;8.67;;;;;;;;;;6382399;22;20379;-76
2021/09/19 06:35:44;;;;;;;10.10;9.20;;;;;;;;;;6382096;22;20409;-75
2021/09/19 06:38:10;;;;;;;8.40;7.60;;;;;;;;;;6371366;22;20450;-75
2021/09/19 06:40:36;;;;;;;8.73;7.93;;;;;;;;;;6367718;22;20399;-72
2021/09/19 06:43:02;;;;;;;8.13;7.07;;;;;;;;;;6371079;22;20360;-72
2021/09/19 06:45:28;;;;;;;7.63;6.90;;;;;;;;;;6382070;22;20378;-72
2021/09/19 06:50:57;;;;;;;6.87;6.27;;;;;;;;;;6381832;22;20696;-73
2021/09/19 06:53:23;;;;;;;7.70;6.13;;;;;;;;;;6343111;22;20395;-73
2021/09/19 06:55:49;;;;;;;7.30;6.60;;;;;;;;;;6371023;22;20691;-72
2021/09/19 06:58:15;;;;;;;6.97;6.37;;;;;;;;;;6370621;22;20382;-73
2021/09/19 07:00:41;;;;;;;6.47;5.87;;;;;;;;;;6370575;22;20375;-72
2021/09/19 07:06:10;;;;;;;6.00;5.50;;;;;;;;;;6381286;22;20401;-71
2021/09/19 07:08:36;;;;;;;6.20;5.63;;;;;;;;;;6381325;22;20367;-72
2021/09/19 07:11:03;;;;;;;6.20;5.70;;;;;;;;;;6370372;22;20489;-73
2021/09/19 07:13:29;;;;;;;7.10;6.50;;;;;;;;;;6370394;22;20414;-72
2021/09/19 07:15:55;;;;;;;5.50;4.87;;;;;;;;;;6370632;22;20375;-73
2021/09/19 07:21:24;;;;;;;5.73;5.27;;;;;;;;;;6381148;22;20857;-72
2021/09/19 07:23:51;;;;;;;6.07;4.60;;;;;;;;;;6370273;22;20379;-72
2021/09/19 07:26:17;;;;;;;5.83;5.33;;;;;;;;;;6380682;22;20498;-74
2021/09/19 07:28:43;;;;;;;5.57;5.10;;;;;;;;;;6380425;22;20685;-72
2021/09/19 07:31:09;;;;;;;4.90;4.50;;;;;;;;;;6380744;22;20359;-73
2021/09/19 07:36:40;;;;;;;4.77;4.40;;;;;;;;;;6380888;22;20829;-73
2021/09/19 07:39:07;;;;;;;4.67;4.33;;;;;;;;;;6380876;22;20364;-72
2021/09/19 07:41:33;;;;;;;4.30;4.00;;;;;;;;;;6370056;22;20368;-72
2021/09/19 07:44:00;;;;;;;5.60;5.10;;;;;;;;;;6380534;22;20355;-72
2021/09/19 07:46:26;;;;;;;5.97;5.47;;;;;;;;;;6380713;22;20363;-72
2021/09/19 07:48:52;;;;;;;5.00;4.50;;;;;;;;;;6369976;22;20363;-73
2021/09/19 07:51:19;;;;;;;5.73;5.23;;;;;;;;;;6342657;22;20398;-72
2021/09/19 07:53:46;;;;;;;5.20;4.77;;;;;;;;;;6380696;22;20403;-72
2021/09/19 07:56:12;;;;;;;5.23;4.10;;;;;;;;;;6370204;22;20696;-73
2021/09/19 07:58:38;;;;;;;5.90;5.30;;;;;;;;;;6380504;22;20364;-72
2021/09/19 08:01:04;;;;;;;6.23;4.97;;;;;;;;;;6370151;22;20418;-72
2021/09/19 08:06:34;;;;;;;5.10;4.70;;;;;;;;;;6380542;22;20929;-67
2021/09/19 08:09:00;;;;;;;6.60;6.00;;;;;;;;;;6380882;22;20838;-73
2021/09/19 08:11:26;;;;;;;5.37;4.87;;;;;;;;;;6380847;22;20486;-73
2021/09/19 08:13:56;;;;;;;4.90;4.50;;;;;;;;;;6370388;22;20517;-72
2021/09/19 08:16:22;;;;;;;5.10;4.70;;;;;;;;;;6380563;22;20411;-72
2021/09/19 08:21:51;;;;;;;6.07;5.57;;;;;;;;;;6380362;22;20473;-71
2021/09/19 08:24:17;;;;;;;5.20;4.80;;;;;;;;;;6379944;22;20834;-72
2021/09/19 08:26:43;;;;;;;6.90;6.40;;;;;;;;;;6369469;22;20434;-73
2021/09/19 08:29:10;;;;;;;4.93;4.43;;;;;;;;;;6380287;22;20367;-74
2021/09/19 08:31:37;;;;;;;9.33;5.13;;;;;;;;;;6380338;22;20375;-72
2021/09/19 08:37:07;;;;;;;5.77;5.37;;;;;;;;;;6380273;22;20443;-73
2021/09/19 08:39:33;;;;;;;6.10;5.60;;;;;;;;;;6370116;22;20436;-73
2021/09/19 08:41:59;;;;;;;5.80;5.20;;;;;;;;;;6369770;22;20379;-73
2021/09/19 08:44:25;;;;;;;5.70;5.10;;;;;;;;;;6369623;22;20374;-73
2021/09/19 08:46:51;;;;;;;5.70;5.30;;;;;;;;;;6380232;22;20368;-73
2021/09/19 08:52:21;;;;;;;5.63;5.13;;;;;;;;;;6380083;22;20362;-73
2021/09/19 08:54:47;;;;;;;5.80;5.30;;;;;;;;;;6380049;22;20896;-73
2021/09/19 08:57:13;;;;;;;6.13;5.17;;;;;;;;;;6369600;22;20371;-74
2021/09/19 08:59:52;;;;;;;5.27;4.80;;;;;;;;;;6380206;22;20891;-75
2021/09/19 09:02:20;;;;;;;5.40;4.80;;;;;;;;;;6379475;22;20367;-74
2021/09/19 09:04:47;;;;;;;5.00;4.60;;;;;;;;;;6369413;22;20768;-73
2021/09/19 09:07:14;;;;;;;5.13;4.73;;;;;;;;;;6341422;22;20858;-73
2021/09/19 09:09:52;;;;;;;5.77;5.30;;;;;;;;;;6341888;22;20390;-72
2021/09/19 09:12:18;;;;;;;4.90;4.60;;;;;;;;;;6379752;22;20458;-74
2021/09/19 09:14:48;;;;;;;4.80;4.50;;;;;;;;;;6369668;22;20507;-74
2021/09/19 09:17:15;;;;;;;5.20;4.80;;;;;;;;;;6369253;22;20375;-74
2021/09/19 09:19:41;;;;;;;5.40;4.90;;;;;;;;;;6369676;22;20758;-76
2021/09/19 09:22:10;;;;;;;5.63;5.13;;;;;;;;;;6379826;22;20355;-75
2021/09/19 09:24:40;;;;;;;5.10;4.60;;;;;;;;;;6369409;22;20371;-71
2021/09/19 09:27:26;;;;;;;5.90;5.47;;;;;;;;;;6368907;22;20917;-76
2021/09/19 09:30:10;;;;;;;5.73;5.23;;;;;;;;;;6369788;22;20379;-73
2021/09/19 09:32:51;;;;;;;6.10;5.50;;;;;;;;;;6379940;22;20363;-76
2021/09/19 09:35:17;;;;;;;5.90;5.40;;;;;;;;;;6379978;22;20442;-77
2021/09/19 09:37:43;;;;;;;5.10;4.70;;;;;;;;;;6369381;22;20791;-79
2021/09/19 09:40:18;;;;;;;6.13;5.60;;;;;;;;;;6379994;22;20430;-76
2021/09/19 09:43:01;;;;;;;6.43;5.83;;;;;;;;;;6379752;22;20398;-75
2021/09/19 09:45:27;;;;;;;6.47;5.97;;;;;;;;;;6379942;22;20375;-77
2021/09/19 09:47:53;;;;;;;5.27;4.87;;;;;;;;;;6369659;22;20511;-72
2021/09/19 09:50:25;;;;;;;6.33;5.83;;;;;;;;;;6341543;22;20371;-76
2021/09/19 09:52:52;;;;;;;6.63;6.13;;;;;;;;;;6379586;22;20382;-74
2021/09/19 09:55:21;;;;;;;5.40;5.00;;;;;;;;;;6380444;22;20418;-75
2021/09/19 09:57:56;;;;;;;6.60;5.47;;;;;;;;;;6371113;22;20371;-76
2021/09/19 10:00:22;;;;;;;6.60;6.10;;;;;;;;;;6381672;22;20419;-75
2021/09/19 10:02:50;;;;;;;5.80;5.40;;;;;;;;;;6371449;22;20441;-80
2021/09/19 10:05:17;;;;;;;6.97;5.60;;;;;;;;;;6370920;22;20829;-77
2021/09/19 10:07:44;;;;;;;5.83;5.43;;;;;;;;;;6342872;22;20780;-77
2021/09/19 10:10:11;;;;;;;5.80;5.37;;;;;;;;;;6381495;22;20382;-77
2021/09/19 10:12:37;;;;;;;5.13;4.77;;;;;;;;;;6380941;22;20398;-77
2021/09/19 10:15:07;;;;;;;6.13;5.53;;;;;;;;;;6381412;22;20426;-77
2021/09/19 10:17:34;;;;;;;6.83;4.90;;;;;;;;;;6342994;22;20390;-76
2021/09/19 10:23:06;;;;;;;5.90;5.50;;;;;;;;;;6381924;22;20397;-77
2021/09/19 10:25:35;;;;;;;5.33;4.93;;;;;;;;;;6381312;22;20883;-77
2021/09/19 10:28:15;;;;;;;6.47;5.97;;;;;;;;;;6381499;22;20396;-76
2021/09/19 10:31:00;;;;;;;7.70;7.03;;;;;;;;;;6381714;22;20419;-76
2021/09/19 10:33:49;;;;;;;6.90;6.30;;;;;;;;;;6381427;22;20371;-76
2021/09/19 10:36:18;;;;;;;6.07;5.57;;;;;;;;;;6355888;22;20394;-74
2021/09/19 10:38:43;;;;;;;6.40;5.90;;;;;;;;;;6381393;22;20376;-76
2021/09/19 10:41:14;;;;;;;5.30;5.00;;;;;;;;;;6381273;22;20822;-74
2021/09/19 10:43:50;;;;;;;5.60;5.10;;;;;;;;;;6370901;22;20724;-75
2021/09/19 10:46:40;;;;;;;6.33;5.83;;;;;;;;;;6371393;22;20379;-77
2021/09/19 10:49:13;;;;;;;6.23;5.70;;;;;;;;;;6356542;22;20702;-77
2021/09/19 10:51:58;;;;;;;5.30;4.90;;;;;;;;;;6371129;22;20419;-75
2021/09/19 10:54:43;;;;;;;5.57;5.10;;;;;;;;;;6381256;22;20423;-74
2021/09/19 10:57:28;;;;;;;5.23;4.63;;;;;;;;;;6370436;22;20893;-78
2021/09/19 11:00:09;;;;;;;5.47;4.97;;;;;;;;;;6380823;22;20375;-76
2021/09/19 11:02:39;;;;;;;4.77;4.37;;;;;;;;;;6342582;22;20935;-77
2021/09/19 11:05:23;;;;;;;5.17;4.77;;;;;;;;;;6370794;22;20375;-77
2021/09/19 11:08:04;;;;;;;4.50;4.20;;;;;;;;;;6380986;22;20367;-78
2021/09/19 11:10:30;;;;;;;5.77;5.27;;;;;;;;;;6381108;22;20378;-77
2021/09/19 11:12:56;;;;;;;6.00;5.50;;;;;;;;;;6381145;22;20371;-76
2021/09/19 11:15:23;;;;;;;4.30;4.00;;;;;;;;;;6371013;22;20698;-76
2021/09/19 11:17:49;;;;;;;4.40;4.03;;;;;;;;;;6381415;22;20374;-77
2021/09/19 11:20:21;;;;;;;3.80;3.50;;;;;;;;;;6381502;22;20383;-77
2021/09/19 11:22:48;;;;;;;4.27;3.97;;;;;;;;;;6370668;22;20367;-78
2021/09/19 11:25:15;;;;;;;4.97;4.60;;;;;;;;;;6381525;22;20374;-79
2021/09/19 11:27:42;;;;;;;5.37;4.97;;;;;;;;;;6370821;22;20484;-78
2021/09/19 11:30:08;;;;;;;4.43;4.13;;;;;;;;;;6381519;22;20383;-80
2021/09/19 11:32:38;;;;;;;6.33;5.00;;;;;;;;;;6381415;22;20363;-80
2021/09/19 11:35:05;;;;;;;4.87;4.57;;;;;;;;;;6371049;22;20499;-80
2021/09/19 11:37:31;;;;;;;7.50;4.83;;;;;;;;;;6381382;22;20416;-78
2021/09/19 11:39:58;;;;;;;4.30;4.00;;;;;;;;;;6342714;22;20406;-79
2021/09/19 11:42:26;;;;;;;6.30;5.70;;;;;;;;;;6369972;22;20842;-80
2021/09/19 11:44:52;;;;;;;5.37;4.97;;;;;;;;;;6370896;22;20639;-78
2021/09/19 11:47:23;;;;;;;5.87;5.33;;;;;;;;;;6343299;22;20387;-79
2021/09/19 11:49:53;;;;;;;4.80;4.40;;;;;;;;;;6381321;22;20375;-78
2021/09/19 11:52:20;;;;;;;5.63;5.17;;;;;;;;;;6370932;22;20379;-78
2021/09/19 11:54:46;;;;;;;5.00;4.60;;;;;;;;;;6381225;22;20419;-79
2021/09/19 11:57:13;;;;;;;5.67;5.20;;;;;;;;;;6370781;22;20375;-82
2021/09/19 11:59:43;;;;;;;5.70;5.20;;;;;;;;;;6381279;22;20899;-78
2021/09/19 12:02:09;;;;;;;5.40;4.90;;;;;;;;;;6381269;22;20355;-79
2021/09/19 12:04:36;;;;;;;5.20;4.80;;;;;;;;;;6381310;22;20417;-79
2021/09/19 12:07:02;;;;;;;5.73;5.13;;;;;;;;;;6380165;22;20358;-79
2021/09/19 12:09:28;;;;;;;4.90;4.17;;;;;;;;;;6381100;22;20378;-79
2021/09/19 12:11:55;;;;;;;4.93;4.53;;;;;;;;;;6380766;22;20836;-78
2021/09/19 12:14:25;;;;;;;4.13;3.83;;;;;;;;;;6370720;22;20419;-78
2021/09/19 12:17:05;;;;;;;6.53;4.20;;;;;;;;;;6380978;22;20367;-79
2021/09/19 12:19:31;;;;;;;4.20;3.90;;;;;;;;;;6380511;22;20366;-79
2021/09/19 12:22:02;;;;;;;4.77;4.37;;;;;;;;;;6381039;22;20366;-79
2021/09/19 12:24:30;;;;;;;4.60;4.30;;;;;;;;;;6370848;22;20367;-79
2021/09/19 12:27:11;;;;;;;4.70;4.40;;;;;;;;;;6380673;22;20497;-80
2021/09/19 12:29:37;;;;;;;5.10;4.77;;;;;;;;;;6380981;22;20760;-81
2021/09/19 12:32:03;;;;;;;4.97;4.67;;;;;;;;;;6381080;22;20389;-79
2021/09/19 12:34:29;;;;;;;5.03;4.60;;;;;;;;;;6341869;22;20435;-80
2021/09/19 12:36:56;;;;;;;4.23;3.93;;;;;;;;;;6381103;22;20366;-79
2021/09/19 12:39:24;;;;;;;4.87;4.50;;;;;;;;;;6381142;22;20371;-80
2021/09/19 12:41:51;;;;;;;5.40;5.10;;;;;;;;;;6380996;22;20685;-78
2021/09/19 12:44:18;;;;;;;4.67;4.27;;;;;;;;;;6381096;22;20382;-79
2021/09/19 12:46:49;;;;;;;4.33;4.03;;;;;;;;;;6381073;22;20450;-79
2021/09/19 12:49:28;;;;;;;4.73;4.33;;;;;;;;;;6381167;22;20431;-80
2021/09/19 12:52:05;;;;;;;4.57;4.10;;;;;;;;;;6380821;22;20359;-79
2021/09/19 12:54:31;;;;;;;3.80;3.47;;;;;;;;;;6380832;22;20421;-79
2021/09/19 12:56:57;;;;;;;4.10;3.80;;;;;;;;;;6370407;22;20371;-80
2021/09/19 12:59:23;;;;;;;5.07;4.67;;;;;;;;;;6380879;22;20373;-80
2021/09/19 13:01:49;;;;;;;4.50;4.10;;;;;;;;;;6380862;22;20442;-78
2021/09/19 13:04:15;;;;;;;4.43;4.13;;;;;;;;;;6380891;22;20367;-80
2021/09/19 13:06:41;;;;;;;4.20;3.80;;;;;;;;;;6380672;22;20403;-79
2021/09/19 13:09:07;;;;;;;4.20;3.90;;;;;;;;;;6380888;22;20366;-80
2021/09/19 13:11:34;;;;;;;4.80;3.80;;;;;;;;;;6342061;22;20769;-80
2021/09/19 13:14:00;;;;;;;3.97;3.67;;;;;;;;;;6380595;22;20450;-78
2021/09/19 13:16:26;;;;;;;3.50;3.20;;;;;;;;;;6380476;22;20554;-79
2021/09/19 13:18:52;;;;;;;4.70;4.30;;;;;;;;;;6380514;22;20362;-80
2021/09/19 13:24:22;;;;;;;5.00;4.40;;;;;;;;;;6380896;22;20386;-79
2021/09/19 13:26:48;;;;;;;5.27;4.27;;;;;;;;;;6379864;22;20739;-79
2021/09/19 13:29:16;;;;;;;4.13;3.83;;;;;;;;;;6379357;22;20372;-75
2021/09/19 13:31:42;;;;;;;4.23;3.93;;;;;;;;;;6380890;22;20367;-80
2021/09/19 13:34:09;;;;;;;4.40;4.00;;;;;;;;;;6380858;22;20422;-79
2021/09/19 13:36:35;;;;;;;4.90;3.90;;;;;;;;;;6380838;22;20351;-80
2021/09/19 13:39:01;;;;;;;4.90;4.50;;;;;;;;;;6380891;22;20670;-79
2021/09/19 13:41:27;;;;;;;4.37;4.00;;;;;;;;;;6380632;22;20854;-79
2021/09/19 13:43:53;;;;;;;4.50;4.20;;;;;;;;;;6380882;22;20412;-80
2021/09/19 13:46:20;;;;;;;4.10;3.80;;;;;;;;;;6380949;22;20470;-79
2021/09/19 13:48:46;;;;;;;4.67;4.27;;;;;;;;;;6380774;22;20446;-80
2021/09/19 13:54:16;;;;;;;4.60;4.30;;;;;;;;;;6380257;22;20463;-80
2021/09/19 13:56:47;;;;;;;4.30;4.00;;;;;;;;;;6380017;22;20407;-78
2021/09/19 13:59:13;;;;;;;8.07;4.20;;;;;;;;;;6380353;22;20446;-79
2021/09/19 14:01:39;;;;;;;4.83;4.30;;;;;;;;;;6380567;22;20403;-79
2021/09/19 14:04:05;;;;;;;4.73;4.43;;;;;;;;;;6380803;22;20367;-79
2021/09/19 14:09:35;;;;;;;4.47;4.17;;;;;;;;;;6380345;22;20382;-80
2021/09/19 14:12:01;;;;;;;4.67;4.03;;;;;;;;;;6380153;22;20359;-79
2021/09/19 14:14:27;;;;;;;4.27;3.97;;;;;;;;;;6380369;22;21006;-79
2021/09/19 14:16:54;;;;;;;4.10;3.80;;;;;;;;;;6380350;22;20371;-78
2021/09/19 14:19:21;;;;;;;6.57;5.40;;;;;;;;;;6380679;22;20811;-77
2021/09/19 14:21:47;;;;;;;5.47;5.07;;;;;;;;;;6380372;22;20375;-79
2021/09/19 14:24:13;;;;;;;5.50;5.00;;;;;;;;;;6380488;22;20387;-78
2021/09/19 14:26:39;;;;;;;4.73;4.33;;;;;;;;;;6325096;22;1148736;-77
2021/09/19 14:29:05;;;;;;;5.40;4.90;;;;;;;;;;6382076;22;20149;-80
2021/09/19 14:31:31;;;;;;;4.77;4.37;;;;;;;;;;6382252;22;20372;-79
2021/09/19 14:33:57;;;;;;;3.97;3.67;;;;;;;;;;6382131;22;20418;-79
2021/09/19 14:39:26;;;;;;;4.50;4.10;;;;;;;;;;6382122;22;20495;-78
2021/09/19 14:41:53;;;;;;;5.40;4.50;;;;;;;;;;6381339;22;20417;-78
2021/09/19 14:44:19;;;;;;;5.10;4.70;;;;;;;;;;6382099;22;20359;-80
2021/09/19 14:46:45;;;;;;;5.10;4.60;;;;;;;;;;6382181;22;20372;-79
2021/09/19 14:49:13;;;;;;;5.73;5.23;;;;;;;;;;6371792;22;20390;-78
2021/09/19 14:54:42;;;;;;;4.20;3.90;;;;;;;;;;6381970;22;20920;-79
2021/09/19 14:57:09;;;;;;;5.50;5.00;;;;;;;;;;6381567;22;20367;-77
2021/09/19 14:59:35;;;;;;;4.77;4.37;;;;;;;;;;6381543;22;20440;-78
2021/09/19 15:02:01;;;;;;;5.50;4.97;;;;;;;;;;6381783;22;20367;-77
2021/09/19 15:04:27;;;;;;;4.70;4.30;;;;;;;;;;6381684;22;20379;-78
2021/09/19 15:06:53;;;;;;;5.10;4.50;;;;;;;;;;6381690;22;20845;-77
2021/09/19 15:09:19;;;;;;;4.83;4.50;;;;;;;;;;6381728;22;20376;-80
2021/09/19 15:11:45;;;;;;;5.37;4.87;;;;;;;;;;6381402;22;20813;-80
2021/09/19 15:14:11;;;;;;;5.60;5.10;;;;;;;;;;6381269;22;20410;-78
2021/09/19 15:16:37;;;;;;;5.23;4.73;;;;;;;;;;6343394;22;20571;-79
2021/09/19 15:19:03;;;;;;;4.20;3.80;;;;;;;;;;6370519;22;20421;-79
2021/09/19 15:24:32;;;;;;;4.63;4.10;;;;;;;;;;6381566;22;20378;-80
2021/09/19 15:26:58;;;;;;;4.83;4.43;;;;;;;;;;6381484;22;20517;-79
2021/09/19 15:29:25;;;;;;;4.50;4.10;;;;;;;;;;6367287;22;20450;-77
2021/09/19 15:31:51;;;;;;;5.80;5.30;;;;;;;;;;6370900;22;20882;-80
2021/09/19 15:34:19;;;;;;;4.70;4.27;;;;;;;;;;6338337;22;20533;-83
2021/09/19 15:39:48;;;;;;;4.20;3.83;;;;;;;;;;6380150;22;20763;-80
2021/09/19 15:42:14;;;;;;;5.10;4.70;;;;;;;;;;6380060;22;20406;-80
2021/09/19 15:44:40;;;;;;;5.10;4.70;;;;;;;;;;6341609;22;20387;-80
2021/09/19 15:47:06;;;;;;;4.60;4.10;;;;;;;;;;6341912;22;20431;-82
2021/09/19 15:49:34;;;;;;;4.70;4.30;;;;;;;;;;6380224;22;20424;-78
2021/09/19 15:55:04;;;;;;;4.10;3.53;;;;;;;;;;6379538;22;20452;-78
2021/09/19 15:57:30;;;;;;;5.93;4.20;;;;;;;;;;6379459;22;20363;-79
2021/09/19 15:59:55;;;;;;;4.93;4.53;;;;;;;;;;6379636;22;20840;-80
2021/09/19 16:02:21;;;;;;;4.80;4.40;;;;;;;;;;6379492;22;20363;-81
2021/09/19 16:04:47;;;;;;;5.60;4.63;;;;;;;;;;6379676;22;20480;-82
2021/09/19 16:07:15;;;;;;;4.77;3.93;;;;;;;;;;6342893;22;20398;-81
2021/09/19 16:09:41;;;;;;;4.93;4.37;;;;;;;;;;6378890;22;20375;-80
2021/09/19 16:12:07;;;;;;;4.73;4.20;;;;;;;;;;6379143;22;20822;-80
2021/09/19 16:14:33;;;;;;;4.97;4.57;;;;;;;;;;6341317;22;20684;-78
2021/09/19 16:16:59;;;;;;;4.83;4.43;;;;;;;;;;6379371;22;20374;-74
2021/09/19 16:19:25;;;;;;;4.63;4.30;;;;;;;;;;6380643;22;20398;-78
2021/09/19 16:24:54;;;;;;;4.80;4.27;;;;;;;;;;6380595;22;20386;-78
2021/09/19 16:27:20;;;;;;;4.73;4.33;;;;;;;;;;6380470;22;20430;-76
2021/09/19 16:29:46;;;;;;;4.83;4.43;;;;;;;;;;6379841;22;20363;-78
2021/09/19 16:32:12;;;;;;;5.30;4.83;;;;;;;;;;6341699;22;20857;-76
2021/09/19 16:34:38;;;;;;;5.13;4.53;;;;;;;;;;6380231;22;20455;-72